This is the latest recevied weather packets stored in our database for station/object LU8AQL-WX. If no packets are shown the sender has not sent any weather packets the latest 10 day(s).
| Time | Temp. | Humidity | Pressure | Rain* | Wind** | Luminosity | Snow |
|---|---|---|---|---|---|---|---|
| 1777736085 | 13.33° C | 40% | 1026 hPa | 0 mm | - | - | - |
| 1777735484 | 13.33° C | 40% | 1026 hPa | 0 mm | - | - | - |
| 1777734883 | 13.33° C | 40% | 1026 hPa | 0 mm | - | - | - |
| 1777734283 | 13.33° C | 42% | 1026 hPa | 0 mm | - | - | - |
| 1777733681 | 12.78° C | 43% | 1026 hPa | 0 mm | - | - | - |
| 1777733080 | 12.78° C | 43% | 1026 hPa | 0 mm | - | - | - |
| 1777732480 | 12.78° C | 44% | 1026 hPa | 0 mm | - | - | - |
| 1777731879 | 13.33° C | 44% | 1026 hPa | 0 mm | - | - | - |
| 1777731277 | 12.78° C | 44% | 1026 hPa | 0 mm | - | - | - |
| 1777730677 | 12.78° C | 45% | 1026 hPa | 0 mm | - | - | - |
| 1777730076 | 12.78° C | 45% | 1026 hPa | 0 mm | - | - | - |
| 1777729475 | 12.78° C | 46% | 1026 hPa | 0 mm | - | - | - |
| 1777728874 | 12.78° C | 47% | 1026 hPa | 0 mm | - | - | - |
| 1777728273 | 12.78° C | 46% | 1025 hPa | 0 mm | - | - | - |
| 1777727672 | 12.22° C | 49% | 1025 hPa | 0 mm | - | - | - |
| 1777727071 | 11.67° C | 56% | 1025 hPa | 0 mm | - | - | - |
| 1777726471 | 11.67° C | 56% | 1025 hPa | 0 mm | - | - | - |
| 1777725870 | 11.67° C | 60% | 1025 hPa | 0 mm | - | - | - |
| 1777725269 | 11.11° C | 64% | 1025 hPa | 0 mm | - | - | - |
| 1777724668 | 10.56° C | 67% | 1025 hPa | 0 mm | - | - | - |
| 1777724067 | 10.56° C | 67% | 1025 hPa | 0 mm | - | - | - |
| 1777723466 | 10.56° C | 69% | 1025 hPa | 0 mm | - | - | - |
| 1777722865 | 10.56° C | 70% | 1025 hPa | 0 mm | - | - | - |
| 1777722264 | 10.56° C | 71% | 1025 hPa | 0 mm | - | - | - |
| 1777721663 | 10° C | 73% | 1025 hPa | 0 mm | - | - | - |
* Rain latest hour (hover to see other rain measurements)
** Current wind speed in m/s (hover to see current wind gust speed)